sensor_id;sensor_type;location;lat;lon;timestamp;P1;durP1;ratioP1;P2;durP2;ratioP2
65552;SDS011;52465;51.560;14.368;2022-10-17T00:00:18;5.55;;;3.60;;
65552;SDS011;52465;51.560;14.368;2022-10-17T00:02:43;5.00;;;3.53;;
65552;SDS011;52465;51.560;14.368;2022-10-17T00:05:09;5.28;;;3.63;;
65552;SDS011;52465;51.560;14.368;2022-10-17T00:07:35;4.63;;;3.67;;
65552;SDS011;52465;51.560;14.368;2022-10-17T00:10:01;5.20;;;3.90;;
65552;SDS011;52465;51.560;14.368;2022-10-17T00:12:26;6.00;;;3.55;;
65552;SDS011;52465;51.560;14.368;2022-10-17T00:14:51;5.20;;;3.50;;
65552;SDS011;52465;51.560;14.368;2022-10-17T00:17:16;4.93;;;3.70;;
65552;SDS011;52465;51.560;14.368;2022-10-17T00:19:42;5.72;;;3.60;;
65552;SDS011;52465;51.560;14.368;2022-10-17T00:22:07;5.22;;;3.60;;
65552;SDS011;52465;51.560;14.368;2022-10-17T00:24:32;5.15;;;3.97;;
65552;SDS011;52465;51.560;14.368;2022-10-17T00:27:00;4.93;;;3.55;;
65552;SDS011;52465;51.560;14.368;2022-10-17T00:29:25;4.97;;;3.25;;
65552;SDS011;52465;51.560;14.368;2022-10-17T00:31:54;4.95;;;3.40;;
65552;SDS011;52465;51.560;14.368;2022-10-17T00:34:20;5.10;;;4.03;;
65552;SDS011;52465;51.560;14.368;2022-10-17T00:36:45;3.85;;;3.17;;
65552;SDS011;52465;51.560;14.368;2022-10-17T00:39:10;3.83;;;3.28;;
65552;SDS011;52465;51.560;14.368;2022-10-17T00:41:36;5.18;;;3.28;;
65552;SDS011;52465;51.560;14.368;2022-10-17T00:46:57;4.95;;;3.33;;
65552;SDS011;52465;51.560;14.368;2022-10-17T00:49:25;4.22;;;3.17;;
65552;SDS011;52465;51.560;14.368;2022-10-17T00:51:53;6.63;;;3.50;;
65552;SDS011;52465;51.560;14.368;2022-10-17T00:54:22;5.30;;;3.83;;
65552;SDS011;52465;51.560;14.368;2022-10-17T00:56:52;5.15;;;3.92;;
65552;SDS011;52465;51.560;14.368;2022-10-17T00:59:19;3.58;;;2.90;;
65552;SDS011;52465;51.560;14.368;2022-10-17T01:01:48;4.18;;;3.35;;
65552;SDS011;52465;51.560;14.368;2022-10-17T01:04:20;5.28;;;3.20;;
65552;SDS011;52465;51.560;14.368;2022-10-17T01:06:46;4.80;;;3.80;;
65552;SDS011;52465;51.560;14.368;2022-10-17T01:09:11;4.13;;;3.25;;
65552;SDS011;52465;51.560;14.368;2022-10-17T01:11:44;4.82;;;3.40;;
65552;SDS011;52465;51.560;14.368;2022-10-17T01:14:28;3.97;;;3.15;;
65552;SDS011;52465;51.560;14.368;2022-10-17T01:17:05;3.85;;;3.10;;
65552;SDS011;52465;51.560;14.368;2022-10-17T01:20:04;3.90;;;3.13;;
65552;SDS011;52465;51.560;14.368;2022-10-17T01:22:36;4.93;;;3.33;;
65552;SDS011;52465;51.560;14.368;2022-10-17T01:31:14;3.65;;;3.28;;
65552;SDS011;52465;51.560;14.368;2022-10-17T01:33:45;3.78;;;3.05;;
65552;SDS011;52465;51.560;14.368;2022-10-17T01:36:24;3.88;;;3.00;;
65552;SDS011;52465;51.560;14.368;2022-10-17T01:38:57;3.92;;;2.80;;
65552;SDS011;52465;51.560;14.368;2022-10-17T01:41:45;3.90;;;3.10;;
65552;SDS011;52465;51.560;14.368;2022-10-17T01:44:19;4.15;;;2.75;;
65552;SDS011;52465;51.560;14.368;2022-10-17T01:46:55;3.42;;;3.05;;
65552;SDS011;52465;51.560;14.368;2022-10-17T01:49:25;4.93;;;3.20;;
65552;SDS011;52465;51.560;14.368;2022-10-17T01:51:59;4.38;;;3.13;;
65552;SDS011;52465;51.560;14.368;2022-10-17T01:54:34;3.55;;;2.83;;
65552;SDS011;52465;51.560;14.368;2022-10-17T01:57:06;4.20;;;3.30;;
65552;SDS011;52465;51.560;14.368;2022-10-17T02:02:04;4.22;;;3.00;;
65552;SDS011;52465;51.560;14.368;2022-10-17T02:04:30;3.58;;;3.10;;
65552;SDS011;52465;51.560;14.368;2022-10-17T02:06:56;4.00;;;3.05;;
65552;SDS011;52465;51.560;14.368;2022-10-17T02:12:10;3.40;;;3.10;;
65552;SDS011;52465;51.560;14.368;2022-10-17T02:17:18;4.38;;;3.03;;
65552;SDS011;52465;51.560;14.368;2022-10-17T02:22:49;4.25;;;2.78;;
65552;SDS011;52465;51.560;14.368;2022-10-17T02:28:05;3.50;;;2.78;;
65552;SDS011;52465;51.560;14.368;2022-10-17T02:33:19;4.25;;;3.00;;
65552;SDS011;52465;51.560;14.368;2022-10-17T02:35:51;4.35;;;3.13;;
65552;SDS011;52465;51.560;14.368;2022-10-17T02:38:20;3.42;;;2.92;;
65552;SDS011;52465;51.560;14.368;2022-10-17T02:40:48;4.03;;;2.92;;
65552;SDS011;52465;51.560;14.368;2022-10-17T02:43:15;4.03;;;3.10;;
65552;SDS011;52465;51.560;14.368;2022-10-17T02:45:40;4.00;;;2.95;;
65552;SDS011;52465;51.560;14.368;2022-10-17T02:48:08;3.80;;;2.97;;
65552;SDS011;52465;51.560;14.368;2022-10-17T02:50:44;3.38;;;2.88;;
65552;SDS011;52465;51.560;14.368;2022-10-17T02:53:19;3.78;;;3.00;;
65552;SDS011;52465;51.560;14.368;2022-10-17T02:55:55;3.33;;;3.00;;
65552;SDS011;52465;51.560;14.368;2022-10-17T02:58:24;3.90;;;3.20;;
65552;SDS011;52465;51.560;14.368;2022-10-17T03:00:54;3.03;;;2.72;;
65552;SDS011;52465;51.560;14.368;2022-10-17T03:03:27;3.58;;;3.05;;
65552;SDS011;52465;51.560;14.368;2022-10-17T03:05:53;3.50;;;2.80;;
65552;SDS011;52465;51.560;14.368;2022-10-17T03:08:19;3.78;;;3.13;;
65552;SDS011;52465;51.560;14.368;2022-10-17T03:10:45;3.78;;;2.90;;
65552;SDS011;52465;51.560;14.368;2022-10-17T03:13:11;3.58;;;2.63;;
65552;SDS011;52465;51.560;14.368;2022-10-17T03:15:36;4.28;;;3.00;;
65552;SDS011;52465;51.560;14.368;2022-10-17T03:18:02;3.92;;;3.08;;
65552;SDS011;52465;51.560;14.368;2022-10-17T03:20:27;4.55;;;2.60;;
65552;SDS011;52465;51.560;14.368;2022-10-17T03:22:52;3.58;;;2.60;;
65552;SDS011;52465;51.560;14.368;2022-10-17T03:25:18;3.40;;;2.65;;
65552;SDS011;52465;51.560;14.368;2022-10-17T03:27:43;4.65;;;2.83;;
65552;SDS011;52465;51.560;14.368;2022-10-17T03:30:08;3.08;;;2.70;;
65552;SDS011;52465;51.560;14.368;2022-10-17T03:32:33;4.28;;;2.88;;
65552;SDS011;52465;51.560;14.368;2022-10-17T03:34:59;4.18;;;3.00;;
65552;SDS011;52465;51.560;14.368;2022-10-17T03:37:24;4.18;;;2.90;;
65552;SDS011;52465;51.560;14.368;2022-10-17T03:39:50;3.33;;;2.60;;
65552;SDS011;52465;51.560;14.368;2022-10-17T03:42:15;3.80;;;3.10;;
65552;SDS011;52465;51.560;14.368;2022-10-17T03:44:40;4.03;;;3.13;;
65552;SDS011;52465;51.560;14.368;2022-10-17T03:47:05;4.00;;;2.90;;
65552;SDS011;52465;51.560;14.368;2022-10-17T03:49:31;4.65;;;3.20;;
65552;SDS011;52465;51.560;14.368;2022-10-17T03:51:56;3.97;;;3.17;;
65552;SDS011;52465;51.560;14.368;2022-10-17T03:54:21;3.35;;;2.83;;
65552;SDS011;52465;51.560;14.368;2022-10-17T03:56:46;3.95;;;3.15;;
65552;SDS011;52465;51.560;14.368;2022-10-17T03:59:12;4.07;;;3.30;;
65552;SDS011;52465;51.560;14.368;2022-10-17T04:01:38;4.15;;;2.95;;
65552;SDS011;52465;51.560;14.368;2022-10-17T04:04:04;4.35;;;2.80;;
65552;SDS011;52465;51.560;14.368;2022-10-17T04:06:29;4.00;;;2.90;;
65552;SDS011;52465;51.560;14.368;2022-10-17T04:08:54;3.70;;;3.00;;
65552;SDS011;52465;51.560;14.368;2022-10-17T04:11:20;3.92;;;3.10;;
65552;SDS011;52465;51.560;14.368;2022-10-17T04:13:45;4.07;;;3.00;;
65552;SDS011;52465;51.560;14.368;2022-10-17T04:16:13;3.20;;;2.78;;
65552;SDS011;52465;51.560;14.368;2022-10-17T04:18:40;4.10;;;2.95;;
65552;SDS011;52465;51.560;14.368;2022-10-17T04:21:07;5.57;;;3.65;;
65552;SDS011;52465;51.560;14.368;2022-10-17T04:23:32;4.13;;;3.03;;
65552;SDS011;52465;51.560;14.368;2022-10-17T04:25:58;3.53;;;2.90;;
65552;SDS011;52465;51.560;14.368;2022-10-17T04:28:25;3.55;;;2.90;;
65552;SDS011;52465;51.560;14.368;2022-10-17T04:30:57;3.85;;;3.22;;
65552;SDS011;52465;51.560;14.368;2022-10-17T04:33:26;5.05;;;3.65;;
65552;SDS011;52465;51.560;14.368;2022-10-17T04:35:55;4.13;;;3.10;;
65552;SDS011;52465;51.560;14.368;2022-10-17T04:38:22;4.18;;;3.10;;
65552;SDS011;52465;51.560;14.368;2022-10-17T04:40:47;3.97;;;3.33;;
65552;SDS011;52465;51.560;14.368;2022-10-17T04:43:12;6.28;;;3.45;;
65552;SDS011;52465;51.560;14.368;2022-10-17T04:45:37;4.22;;;3.42;;
65552;SDS011;52465;51.560;14.368;2022-10-17T04:48:03;5.03;;;3.50;;
65552;SDS011;52465;51.560;14.368;2022-10-17T04:50:28;5.68;;;3.22;;
65552;SDS011;52465;51.560;14.368;2022-10-17T04:52:53;4.32;;;3.40;;
65552;SDS011;52465;51.560;14.368;2022-10-17T04:55:19;4.20;;;3.35;;
65552;SDS011;52465;51.560;14.368;2022-10-17T04:57:44;4.65;;;3.30;;
65552;SDS011;52465;51.560;14.368;2022-10-17T05:00:09;5.60;;;3.60;;
65552;SDS011;52465;51.560;14.368;2022-10-17T05:02:35;4.75;;;3.20;;
65552;SDS011;52465;51.560;14.368;2022-10-17T05:05:00;5.00;;;3.47;;
65552;SDS011;52465;51.560;14.368;2022-10-17T05:07:26;4.55;;;3.50;;
65552;SDS011;52465;51.560;14.368;2022-10-17T05:09:51;6.18;;;4.25;;
65552;SDS011;52465;51.560;14.368;2022-10-17T05:12:19;5.03;;;3.70;;
65552;SDS011;52465;51.560;14.368;2022-10-17T05:14:45;7.32;;;4.10;;
65552;SDS011;52465;51.560;14.368;2022-10-17T05:17:10;4.53;;;3.53;;
65552;SDS011;52465;51.560;14.368;2022-10-17T05:19:35;7.28;;;4.80;;
65552;SDS011;52465;51.560;14.368;2022-10-17T05:22:00;7.13;;;4.97;;
65552;SDS011;52465;51.560;14.368;2022-10-17T05:24:26;7.15;;;5.22;;
65552;SDS011;52465;51.560;14.368;2022-10-17T05:26:51;7.25;;;5.20;;
65552;SDS011;52465;51.560;14.368;2022-10-17T05:29:16;8.13;;;5.53;;
65552;SDS011;52465;51.560;14.368;2022-10-17T05:31:42;6.68;;;5.00;;
65552;SDS011;52465;51.560;14.368;2022-10-17T05:34:07;7.55;;;4.85;;
65552;SDS011;52465;51.560;14.368;2022-10-17T05:36:32;7.47;;;5.55;;
65552;SDS011;52465;51.560;14.368;2022-10-17T05:38:58;8.23;;;5.45;;
65552;SDS011;52465;51.560;14.368;2022-10-17T05:41:24;7.35;;;5.10;;
65552;SDS011;52465;51.560;14.368;2022-10-17T05:43:49;8.40;;;5.30;;
65552;SDS011;52465;51.560;14.368;2022-10-17T05:46:14;8.27;;;5.65;;
65552;SDS011;52465;51.560;14.368;2022-10-17T05:48:40;10.48;;;6.15;;
65552;SDS011;52465;51.560;14.368;2022-10-17T05:51:06;7.90;;;5.53;;
65552;SDS011;52465;51.560;14.368;2022-10-17T05:53:34;7.97;;;5.53;;
65552;SDS011;52465;51.560;14.368;2022-10-17T05:56:02;10.25;;;6.45;;
65552;SDS011;52465;51.560;14.368;2022-10-17T05:58:30;6.90;;;5.30;;
65552;SDS011;52465;51.560;14.368;2022-10-17T06:00:57;7.55;;;5.47;;
65552;SDS011;52465;51.560;14.368;2022-10-17T06:03:23;9.38;;;5.95;;
65552;SDS011;52465;51.560;14.368;2022-10-17T06:05:49;8.23;;;5.78;;
65552;SDS011;52465;51.560;14.368;2022-10-17T06:08:15;9.32;;;5.93;;
65552;SDS011;52465;51.560;14.368;2022-10-17T06:10:41;7.78;;;5.55;;
65552;SDS011;52465;51.560;14.368;2022-10-17T06:13:06;9.45;;;5.82;;
65552;SDS011;52465;51.560;14.368;2022-10-17T06:15:31;8.52;;;5.32;;
65552;SDS011;52465;51.560;14.368;2022-10-17T06:17:56;8.15;;;5.53;;
65552;SDS011;52465;51.560;14.368;2022-10-17T06:20:22;8.88;;;6.20;;
65552;SDS011;52465;51.560;14.368;2022-10-17T06:22:47;7.32;;;5.60;;
65552;SDS011;52465;51.560;14.368;2022-10-17T06:25:12;8.57;;;6.07;;
65552;SDS011;52465;51.560;14.368;2022-10-17T06:27:37;8.40;;;5.82;;
65552;SDS011;52465;51.560;14.368;2022-10-17T06:30:03;9.02;;;6.10;;
65552;SDS011;52465;51.560;14.368;2022-10-17T06:32:28;9.70;;;6.05;;
65552;SDS011;52465;51.560;14.368;2022-10-17T06:34:54;7.97;;;5.75;;
65552;SDS011;52465;51.560;14.368;2022-10-17T06:37:19;8.32;;;5.78;;
65552;SDS011;52465;51.560;14.368;2022-10-17T06:39:44;7.65;;;5.55;;
65552;SDS011;52465;51.560;14.368;2022-10-17T06:42:09;9.02;;;6.03;;
65552;SDS011;52465;51.560;14.368;2022-10-17T06:44:35;9.13;;;5.88;;
65552;SDS011;52465;51.560;14.368;2022-10-17T06:47:00;9.02;;;5.82;;
65552;SDS011;52465;51.560;14.368;2022-10-17T06:49:26;7.82;;;5.70;;
65552;SDS011;52465;51.560;14.368;2022-10-17T06:51:52;8.38;;;5.88;;
65552;SDS011;52465;51.560;14.368;2022-10-17T06:54:17;9.98;;;6.10;;
65552;SDS011;52465;51.560;14.368;2022-10-17T06:56:42;8.10;;;5.55;;
65552;SDS011;52465;51.560;14.368;2022-10-17T06:59:08;7.35;;;5.55;;
65552;SDS011;52465;51.560;14.368;2022-10-17T07:01:34;10.07;;;6.25;;
65552;SDS011;52465;51.560;14.368;2022-10-17T07:03:59;7.70;;;5.40;;
65552;SDS011;52465;51.560;14.368;2022-10-17T07:06:25;8.68;;;5.70;;
65552;SDS011;52465;51.560;14.368;2022-10-17T07:08:50;9.10;;;5.60;;
65552;SDS011;52465;51.560;14.368;2022-10-17T07:11:17;7.90;;;5.88;;
65552;SDS011;52465;51.560;14.368;2022-10-17T07:13:43;8.10;;;5.55;;
65552;SDS011;52465;51.560;14.368;2022-10-17T07:16:09;9.43;;;6.18;;
65552;SDS011;52465;51.560;14.368;2022-10-17T07:18:35;9.85;;;6.05;;
65552;SDS011;52465;51.560;14.368;2022-10-17T07:21:00;9.07;;;5.75;;
65552;SDS011;52465;51.560;14.368;2022-10-17T07:23:26;8.75;;;6.00;;
65552;SDS011;52465;51.560;14.368;2022-10-17T07:25:51;8.55;;;6.13;;
65552;SDS011;52465;51.560;14.368;2022-10-17T07:28:17;8.75;;;5.63;;
65552;SDS011;52465;51.560;14.368;2022-10-17T07:30:43;8.75;;;5.80;;
65552;SDS011;52465;51.560;14.368;2022-10-17T07:33:09;8.45;;;5.88;;
65552;SDS011;52465;51.560;14.368;2022-10-17T07:35:36;8.48;;;5.68;;
65552;SDS011;52465;51.560;14.368;2022-10-17T07:38:02;7.45;;;5.78;;
65552;SDS011;52465;51.560;14.368;2022-10-17T07:40:27;9.02;;;5.68;;
65552;SDS011;52465;51.560;14.368;2022-10-17T07:42:52;8.50;;;5.68;;
65552;SDS011;52465;51.560;14.368;2022-10-17T07:45:19;7.50;;;5.45;;
65552;SDS011;52465;51.560;14.368;2022-10-17T07:47:45;9.98;;;6.10;;
65552;SDS011;52465;51.560;14.368;2022-10-17T07:50:10;9.07;;;5.88;;
65552;SDS011;52465;51.560;14.368;2022-10-17T07:52:35;8.60;;;5.75;;
65552;SDS011;52465;51.560;14.368;2022-10-17T07:55:00;8.15;;;5.90;;
65552;SDS011;52465;51.560;14.368;2022-10-17T07:57:26;8.18;;;5.70;;
65552;SDS011;52465;51.560;14.368;2022-10-17T07:59:51;10.60;;;7.15;;
65552;SDS011;52465;51.560;14.368;2022-10-17T08:02:20;7.75;;;5.45;;
65552;SDS011;52465;51.560;14.368;2022-10-17T08:04:50;7.68;;;5.47;;
65552;SDS011;52465;51.560;14.368;2022-10-17T08:07:16;7.18;;;5.60;;
65552;SDS011;52465;51.560;14.368;2022-10-17T08:09:43;9.52;;;6.28;;
65552;SDS011;52465;51.560;14.368;2022-10-17T08:12:10;7.32;;;5.30;;
65552;SDS011;52465;51.560;14.368;2022-10-17T08:14:35;8.90;;;5.93;;
65552;SDS011;52465;51.560;14.368;2022-10-17T08:17:01;8.43;;;6.35;;
65552;SDS011;52465;51.560;14.368;2022-10-17T08:19:26;9.15;;;5.75;;
65552;SDS011;52465;51.560;14.368;2022-10-17T08:21:51;8.90;;;6.28;;
65552;SDS011;52465;51.560;14.368;2022-10-17T08:24:18;7.25;;;5.30;;
65552;SDS011;52465;51.560;14.368;2022-10-17T08:26:44;7.97;;;5.57;;
65552;SDS011;52465;51.560;14.368;2022-10-17T08:29:12;7.20;;;5.28;;
65552;SDS011;52465;51.560;14.368;2022-10-17T08:31:38;8.82;;;6.15;;
65552;SDS011;52465;51.560;14.368;2022-10-17T08:34:03;7.53;;;5.40;;
65552;SDS011;52465;51.560;14.368;2022-10-17T08:36:29;6.82;;;5.00;;
65552;SDS011;52465;51.560;14.368;2022-10-17T08:38:54;9.38;;;6.07;;
65552;SDS011;52465;51.560;14.368;2022-10-17T08:44:14;8.55;;;5.53;;
65552;SDS011;52465;51.560;14.368;2022-10-17T08:46:47;6.45;;;5.00;;
65552;SDS011;52465;51.560;14.368;2022-10-17T08:49:20;9.45;;;5.93;;
65552;SDS011;52465;51.560;14.368;2022-10-17T08:51:56;8.70;;;6.32;;
65552;SDS011;52465;51.560;14.368;2022-10-17T08:54:35;11.90;;;6.20;;
65552;SDS011;52465;51.560;14.368;2022-10-17T08:57:07;10.07;;;6.40;;
65552;SDS011;52465;51.560;14.368;2022-10-17T08:59:35;9.77;;;6.32;;
65552;SDS011;52465;51.560;14.368;2022-10-17T09:02:15;10.02;;;6.78;;
65552;SDS011;52465;51.560;14.368;2022-10-17T09:04:53;10.18;;;6.40;;
65552;SDS011;52465;51.560;14.368;2022-10-17T09:10:37;9.40;;;5.88;;
65552;SDS011;52465;51.560;14.368;2022-10-17T09:13:23;9.45;;;6.30;;
65552;SDS011;52465;51.560;14.368;2022-10-17T09:18:47;9.82;;;6.28;;
65552;SDS011;52465;51.560;14.368;2022-10-17T09:21:41;9.30;;;6.00;;
65552;SDS011;52465;51.560;14.368;2022-10-17T09:24:12;9.25;;;6.30;;
65552;SDS011;52465;51.560;14.368;2022-10-17T09:26:44;9.45;;;5.90;;
65552;SDS011;52465;51.560;14.368;2022-10-17T09:29:22;9.45;;;6.25;;
65552;SDS011;52465;51.560;14.368;2022-10-17T09:31:53;9.43;;;6.32;;
65552;SDS011;52465;51.560;14.368;2022-10-17T09:34:26;9.95;;;6.00;;
65552;SDS011;52465;51.560;14.368;2022-10-17T09:36:53;9.10;;;6.43;;
65552;SDS011;52465;51.560;14.368;2022-10-17T09:39:21;10.07;;;6.20;;
65552;SDS011;52465;51.560;14.368;2022-10-17T09:41:53;9.32;;;6.25;;
65552;SDS011;52465;51.560;14.368;2022-10-17T09:44:31;9.15;;;5.90;;
65552;SDS011;52465;51.560;14.368;2022-10-17T09:49:43;8.77;;;5.53;;
65552;SDS011;52465;51.560;14.368;2022-10-17T09:52:11;7.05;;;5.78;;
65552;SDS011;52465;51.560;14.368;2022-10-17T09:54:43;10.00;;;5.93;;
65552;SDS011;52465;51.560;14.368;2022-10-17T09:57:12;9.02;;;6.40;;
65552;SDS011;52465;51.560;14.368;2022-10-17T09:59:41;8.32;;;5.43;;
65552;SDS011;52465;51.560;14.368;2022-10-17T10:02:23;10.57;;;6.70;;
65552;SDS011;52465;51.560;14.368;2022-10-17T10:05:05;9.27;;;6.53;;
65552;SDS011;52465;51.560;14.368;2022-10-17T10:07:44;8.85;;;6.05;;
65552;SDS011;52465;51.560;14.368;2022-10-17T10:10:26;9.38;;;5.88;;
65552;SDS011;52465;51.560;14.368;2022-10-17T10:13:06;8.93;;;6.38;;
65552;SDS011;52465;51.560;14.368;2022-10-17T10:15:38;7.90;;;5.80;;
65552;SDS011;52465;51.560;14.368;2022-10-17T10:23:43;8.20;;;5.65;;
65552;SDS011;52465;51.560;14.368;2022-10-17T10:26:26;7.60;;;5.47;;
65552;SDS011;52465;51.560;14.368;2022-10-17T10:28:57;8.25;;;6.03;;
65552;SDS011;52465;51.560;14.368;2022-10-17T10:31:27;8.85;;;5.88;;
65552;SDS011;52465;51.560;14.368;2022-10-17T10:33:55;7.32;;;4.97;;
65552;SDS011;52465;51.560;14.368;2022-10-17T10:36:21;7.63;;;5.65;;
65552;SDS011;52465;51.560;14.368;2022-10-17T10:38:52;9.52;;;6.25;;
65552;SDS011;52465;51.560;14.368;2022-10-17T10:41:19;8.43;;;5.68;;
65552;SDS011;52465;51.560;14.368;2022-10-17T10:43:46;7.88;;;5.30;;
65552;SDS011;52465;51.560;14.368;2022-10-17T10:46:18;8.35;;;5.68;;
65552;SDS011;52465;51.560;14.368;2022-10-17T10:48:50;7.85;;;5.30;;
65552;SDS011;52465;51.560;14.368;2022-10-17T10:51:20;7.55;;;5.57;;
65552;SDS011;52465;51.560;14.368;2022-10-17T10:53:54;6.47;;;4.78;;
65552;SDS011;52465;51.560;14.368;2022-10-17T10:56:37;7.90;;;5.88;;
65552;SDS011;52465;51.560;14.368;2022-10-17T11:01:53;8.02;;;5.18;;
65552;SDS011;52465;51.560;14.368;2022-10-17T11:04:40;8.20;;;5.80;;
65552;SDS011;52465;51.560;14.368;2022-10-17T11:07:12;7.85;;;5.70;;
65552;SDS011;52465;51.560;14.368;2022-10-17T11:09:45;7.78;;;5.30;;
65552;SDS011;52465;51.560;14.368;2022-10-17T11:12:23;8.23;;;5.53;;
65552;SDS011;52465;51.560;14.368;2022-10-17T11:14:55;6.88;;;4.95;;
65552;SDS011;52465;51.560;14.368;2022-10-17T11:20:09;7.90;;;5.68;;
65552;SDS011;52465;51.560;14.368;2022-10-17T11:22:43;6.68;;;4.88;;
65552;SDS011;52465;51.560;14.368;2022-10-17T11:27:36;7.67;;;4.77;;
65552;SDS011;52465;51.560;14.368;2022-10-17T11:30:02;7.50;;;5.53;;
65552;SDS011;52465;51.560;14.368;2022-10-17T11:32:48;6.72;;;5.00;;
65552;SDS011;52465;51.560;14.368;2022-10-17T11:38:02;8.45;;;5.47;;
65552;SDS011;52465;51.560;14.368;2022-10-17T11:40:39;7.72;;;5.32;;
65552;SDS011;52465;51.560;14.368;2022-10-17T11:43:12;7.53;;;5.05;;
65552;SDS011;52465;51.560;14.368;2022-10-17T11:45:44;6.60;;;5.10;;
65552;SDS011;52465;51.560;14.368;2022-10-17T11:48:21;7.75;;;5.60;;
65552;SDS011;52465;51.560;14.368;2022-10-17T11:50:52;7.13;;;5.20;;
65552;SDS011;52465;51.560;14.368;2022-10-17T11:53:28;7.88;;;5.30;;
65552;SDS011;52465;51.560;14.368;2022-10-17T11:55:57;7.00;;;4.78;;
65552;SDS011;52465;51.560;14.368;2022-10-17T12:06:18;7.28;;;5.10;;
65552;SDS011;52465;51.560;14.368;2022-10-17T12:08:48;8.57;;;5.50;;
65552;SDS011;52465;51.560;14.368;2022-10-17T12:14:33;7.65;;;5.07;;
65552;SDS011;52465;51.560;14.368;2022-10-17T12:16:57;8.02;;;5.78;;
65552;SDS011;52465;51.560;14.368;2022-10-17T12:19:23;7.35;;;4.78;;
65552;SDS011;52465;51.560;14.368;2022-10-17T12:21:57;7.18;;;4.95;;
65552;SDS011;52465;51.560;14.368;2022-10-17T12:29:58;6.55;;;4.85;;
65552;SDS011;52465;51.560;14.368;2022-10-17T12:32:25;8.40;;;5.28;;
65552;SDS011;52465;51.560;14.368;2022-10-17T12:34:54;7.35;;;4.85;;
65552;SDS011;52465;51.560;14.368;2022-10-17T12:37:58;9.32;;;5.15;;
65552;SDS011;52465;51.560;14.368;2022-10-17T12:43:31;7.28;;;5.18;;
65552;SDS011;52465;51.560;14.368;2022-10-17T12:46:00;9.48;;;5.47;;
65552;SDS011;52465;51.560;14.368;2022-10-17T12:48:57;7.28;;;5.18;;
65552;SDS011;52465;51.560;14.368;2022-10-17T12:51:24;6.00;;;4.60;;
65552;SDS011;52465;51.560;14.368;2022-10-17T12:56:39;7.40;;;5.10;;
65552;SDS011;52465;51.560;14.368;2022-10-17T13:01:45;7.00;;;4.85;;
65552;SDS011;52465;51.560;14.368;2022-10-17T13:04:12;8.00;;;5.13;;
65552;SDS011;52465;51.560;14.368;2022-10-17T13:06:39;6.53;;;4.50;;
65552;SDS011;52465;51.560;14.368;2022-10-17T13:09:25;6.60;;;4.75;;
65552;SDS011;52465;51.560;14.368;2022-10-17T13:11:53;7.15;;;4.82;;
65552;SDS011;52465;51.560;14.368;2022-10-17T13:14:21;6.90;;;4.80;;
65552;SDS011;52465;51.560;14.368;2022-10-17T13:16:55;7.97;;;5.32;;
65552;SDS011;52465;51.560;14.368;2022-10-17T13:19:24;7.60;;;5.43;;
65552;SDS011;52465;51.560;14.368;2022-10-17T13:21:53;8.13;;;5.47;;
65552;SDS011;52465;51.560;14.368;2022-10-17T13:24:28;7.32;;;5.22;;
65552;SDS011;52465;51.560;14.368;2022-10-17T13:26:58;7.80;;;4.90;;
65552;SDS011;52465;51.560;14.368;2022-10-17T13:29:24;7.57;;;5.32;;
65552;SDS011;52465;51.560;14.368;2022-10-17T13:31:53;7.55;;;5.25;;
65552;SDS011;52465;51.560;14.368;2022-10-17T13:34:21;6.88;;;5.03;;
65552;SDS011;52465;51.560;14.368;2022-10-17T13:36:52;7.15;;;5.10;;
65552;SDS011;52465;51.560;14.368;2022-10-17T13:39:23;8.75;;;5.80;;
65552;SDS011;52465;51.560;14.368;2022-10-17T13:41:50;8.90;;;5.80;;
65552;SDS011;52465;51.560;14.368;2022-10-17T13:44:23;9.48;;;5.88;;
65552;SDS011;52465;51.560;14.368;2022-10-17T13:46:51;7.85;;;5.68;;
65552;SDS011;52465;51.560;14.368;2022-10-17T13:49:33;9.15;;;5.97;;
65552;SDS011;52465;51.560;14.368;2022-10-17T13:52:02;8.77;;;6.00;;
65552;SDS011;52465;51.560;14.368;2022-10-17T13:54:37;7.78;;;5.25;;
65552;SDS011;52465;51.560;14.368;2022-10-17T13:57:19;7.32;;;5.57;;
65552;SDS011;52465;51.560;14.368;2022-10-17T14:02:44;7.68;;;5.43;;
65552;SDS011;52465;51.560;14.368;2022-10-17T14:05:10;7.68;;;5.25;;
65552;SDS011;52465;51.560;14.368;2022-10-17T14:07:51;7.22;;;5.13;;
65552;SDS011;52465;51.560;14.368;2022-10-17T14:10:18;9.45;;;5.90;;
65552;SDS011;52465;51.560;14.368;2022-10-17T14:12:46;8.05;;;5.28;;
65552;SDS011;52465;51.560;14.368;2022-10-17T14:15:14;7.43;;;5.00;;
65552;SDS011;52465;51.560;14.368;2022-10-17T14:17:40;7.57;;;5.03;;
65552;SDS011;52465;51.560;14.368;2022-10-17T14:20:15;8.70;;;5.82;;
65552;SDS011;52465;51.560;14.368;2022-10-17T14:22:42;7.35;;;4.82;;
65552;SDS011;52465;51.560;14.368;2022-10-17T14:33:06;9.02;;;5.57;;
65552;SDS011;52465;51.560;14.368;2022-10-17T14:35:37;7.93;;;5.05;;
65552;SDS011;52465;51.560;14.368;2022-10-17T14:38:04;8.77;;;5.97;;
65552;SDS011;52465;51.560;14.368;2022-10-17T14:40:31;7.80;;;5.43;;
65552;SDS011;52465;51.560;14.368;2022-10-17T14:43:04;9.18;;;6.13;;
65552;SDS011;52465;51.560;14.368;2022-10-17T14:45:31;11.13;;;5.95;;
65552;SDS011;52465;51.560;14.368;2022-10-17T14:48:00;9.45;;;5.85;;
65552;SDS011;52465;51.560;14.368;2022-10-17T14:50:30;8.05;;;5.53;;
65552;SDS011;52465;51.560;14.368;2022-10-17T14:53:00;9.82;;;5.72;;
65552;SDS011;52465;51.560;14.368;2022-10-17T14:55:28;8.80;;;5.35;;
65552;SDS011;52465;51.560;14.368;2022-10-17T14:57:54;9.50;;;5.85;;
65552;SDS011;52465;51.560;14.368;2022-10-17T15:00:20;9.27;;;5.70;;
65552;SDS011;52465;51.560;14.368;2022-10-17T15:02:47;9.77;;;6.03;;
65552;SDS011;52465;51.560;14.368;2022-10-17T15:05:13;10.15;;;6.13;;
65552;SDS011;52465;51.560;14.368;2022-10-17T15:07:39;9.57;;;5.93;;
65552;SDS011;52465;51.560;14.368;2022-10-17T15:10:05;9.35;;;5.55;;
65552;SDS011;52465;51.560;14.368;2022-10-17T15:12:33;9.52;;;5.97;;
65552;SDS011;52465;51.560;14.368;2022-10-17T15:14:59;8.65;;;5.35;;
65552;SDS011;52465;51.560;14.368;2022-10-17T15:17:25;9.07;;;5.85;;
65552;SDS011;52465;51.560;14.368;2022-10-17T15:19:53;9.68;;;5.82;;
65552;SDS011;52465;51.560;14.368;2022-10-17T15:22:20;7.43;;;5.15;;
65552;SDS011;52465;51.560;14.368;2022-10-17T15:24:45;7.57;;;4.78;;
65552;SDS011;52465;51.560;14.368;2022-10-17T15:27:15;8.48;;;5.05;;
65552;SDS011;52465;51.560;14.368;2022-10-17T15:29:45;7.22;;;4.97;;
65552;SDS011;52465;51.560;14.368;2022-10-17T15:32:11;6.60;;;4.38;;
65552;SDS011;52465;51.560;14.368;2022-10-17T15:34:36;7.60;;;4.90;;
65552;SDS011;52465;51.560;14.368;2022-10-17T15:37:02;8.68;;;5.47;;
65552;SDS011;52465;51.560;14.368;2022-10-17T15:39:29;7.55;;;4.95;;
65552;SDS011;52465;51.560;14.368;2022-10-17T15:41:54;8.13;;;5.18;;
65552;SDS011;52465;51.560;14.368;2022-10-17T15:44:19;9.80;;;4.82;;
65552;SDS011;52465;51.560;14.368;2022-10-17T15:46:44;9.90;;;5.30;;
65552;SDS011;52465;51.560;14.368;2022-10-17T15:49:11;9.77;;;5.57;;
65552;SDS011;52465;51.560;14.368;2022-10-17T15:51:37;9.80;;;5.57;;
65552;SDS011;52465;51.560;14.368;2022-10-17T15:54:02;9.90;;;6.03;;
65552;SDS011;52465;51.560;14.368;2022-10-17T15:56:30;9.02;;;5.70;;
65552;SDS011;52465;51.560;14.368;2022-10-17T15:59:00;10.20;;;6.03;;
65552;SDS011;52465;51.560;14.368;2022-10-17T16:01:28;7.68;;;5.20;;
65552;SDS011;52465;51.560;14.368;2022-10-17T16:03:55;9.80;;;6.50;;
65552;SDS011;52465;51.560;14.368;2022-10-17T16:06:21;11.50;;;7.63;;
65552;SDS011;52465;51.560;14.368;2022-10-17T16:08:47;12.80;;;7.50;;
65552;SDS011;52465;51.560;14.368;2022-10-17T16:14:00;9.77;;;6.43;;